createdAt,value
2022-12-29T00:01:43.597Z,97649.97
2022-12-29T00:04:14.727Z,97659.56
2022-12-29T00:06:42.037Z,97648.63
2022-12-29T00:09:08.707Z,97641.38
2022-12-29T00:11:35.515Z,97647.50
2022-12-29T00:14:02.158Z,97651.72
2022-12-29T00:16:28.902Z,97649.75
2022-12-29T00:18:55.664Z,97645.41
2022-12-29T00:21:22.284Z,97643.66
2022-12-29T00:23:48.956Z,97650.19
2022-12-29T00:26:15.585Z,97642.75
2022-12-29T00:28:42.243Z,97633.41
2022-12-29T00:31:08.979Z,97633.63
2022-12-29T00:33:35.688Z,97637.72
2022-12-29T00:36:02.393Z,97630.72
2022-12-29T00:38:29.052Z,97628.13
2022-12-29T00:40:55.705Z,97628.84
2022-12-29T00:43:22.340Z,97626.97
2022-12-29T00:45:49.015Z,97623.41
2022-12-29T00:48:15.735Z,97622.56
2022-12-29T00:50:42.364Z,97629.31
2022-12-29T00:53:09.022Z,97628.50
2022-12-29T00:55:35.762Z,97619.28
2022-12-29T00:58:02.429Z,97623.38
2022-12-29T01:00:29.199Z,97623.50
2022-12-29T01:02:56.029Z,97614.81
2022-12-29T01:05:22.784Z,97632.97
2022-12-29T01:07:49.470Z,97627.44
2022-12-29T01:10:16.159Z,97630.47
2022-12-29T01:12:42.847Z,97625.81
2022-12-29T01:15:09.576Z,97627.09
2022-12-29T01:17:36.370Z,97632.25
2022-12-29T01:20:03.098Z,97638.06
2022-12-29T01:22:29.764Z,97635.56
2022-12-29T01:24:56.487Z,97635.56
2022-12-29T01:27:23.117Z,97632.19
2022-12-29T01:29:49.806Z,97631.75
2022-12-29T01:32:16.453Z,97631.63
2022-12-29T01:34:44.821Z,97633.69
2022-12-29T01:37:11.493Z,97632.09
2022-12-29T01:39:38.160Z,97629.63
2022-12-29T01:42:04.818Z,97629.72
2022-12-29T01:44:31.517Z,97631.53
2022-12-29T01:46:58.189Z,97629.56
2022-12-29T01:49:24.898Z,97623.56
2022-12-29T01:51:51.577Z,97613.31
2022-12-29T01:54:18.326Z,97612.44
2022-12-29T01:56:44.952Z,97601.91
2022-12-29T01:59:11.681Z,97594.84
2022-12-29T02:01:38.493Z,97602.16
2022-12-29T02:04:05.229Z,97598.47
2022-12-29T02:06:31.884Z,97601.19
2022-12-29T02:08:58.759Z,97602.41
2022-12-29T02:11:25.392Z,97595.72
2022-12-29T02:13:52.051Z,97589.09
2022-12-29T02:16:18.760Z,97590.13
2022-12-29T02:18:45.483Z,97587.53
2022-12-29T02:21:12.147Z,97580.13
2022-12-29T02:23:38.802Z,97577.84
2022-12-29T02:26:05.476Z,97571.66
2022-12-29T02:28:32.096Z,97580.06
2022-12-29T02:30:58.739Z,97563.16
2022-12-29T02:33:25.408Z,97572.19
2022-12-29T02:35:52.075Z,97571.78
2022-12-29T02:38:18.742Z,97568.38
2022-12-29T02:40:45.477Z,97563.63
2022-12-29T02:43:12.128Z,97569.25
2022-12-29T02:45:38.793Z,97567.47
2022-12-29T02:48:05.473Z,97564.91
2022-12-29T02:50:32.089Z,97560.81
2022-12-29T02:52:58.737Z,97558.88
2022-12-29T02:55:25.437Z,97567.09
2022-12-29T02:57:52.115Z,97567.72
2022-12-29T03:00:18.776Z,97566.16
2022-12-29T03:02:45.517Z,97566.56
2022-12-29T03:05:12.304Z,97566.31
2022-12-29T03:07:38.981Z,97569.25
2022-12-29T03:10:05.682Z,97559.34
2022-12-29T03:12:32.337Z,97561.28
2022-12-29T03:14:59.069Z,97560.28
2022-12-29T03:17:25.733Z,97559.16
2022-12-29T03:19:52.407Z,97562.38
2022-12-29T03:22:19.156Z,97553.88
2022-12-29T03:24:45.799Z,97561.16
2022-12-29T03:27:12.466Z,97560.69
2022-12-29T03:29:39.382Z,97565.59
2022-12-29T03:32:06.034Z,97551.47
2022-12-29T03:34:32.726Z,97555.41
2022-12-29T03:36:59.408Z,97545.63
2022-12-29T03:39:26.020Z,97543.59
2022-12-29T03:41:52.709Z,97545.09
2022-12-29T03:44:19.423Z,97546.59
2022-12-29T03:46:46.091Z,97544.72
2022-12-29T03:49:12.844Z,97552.22
2022-12-29T03:51:39.545Z,97548.84
2022-12-29T03:54:06.224Z,97550.47
2022-12-29T03:56:32.925Z,97548.91
2022-12-29T03:58:59.658Z,97554.50
2022-12-29T04:01:26.378Z,97556.03
2022-12-29T04:03:53.160Z,97554.31
2022-12-29T04:06:19.879Z,97551.56
2022-12-29T04:08:46.520Z,97539.16
2022-12-29T04:11:13.232Z,97540.38
2022-12-29T04:13:41.139Z,97540.75
2022-12-29T04:16:07.865Z,97543.72
2022-12-29T04:18:34.650Z,97542.69
2022-12-29T04:21:01.380Z,97553.38
2022-12-29T04:23:28.093Z,97549.97
2022-12-29T04:25:54.746Z,97549.44
2022-12-29T04:28:21.394Z,97553.78
2022-12-29T04:30:48.340Z,97551.69
2022-12-29T04:33:15.115Z,97541.53
2022-12-29T04:35:41.926Z,97545.53
2022-12-29T04:38:08.612Z,97546.53
2022-12-29T04:40:35.328Z,97545.72
2022-12-29T04:43:02.029Z,97547.00
2022-12-29T04:45:28.705Z,97548.22
2022-12-29T04:47:55.362Z,97545.34
2022-12-29T04:50:22.070Z,97536.56
2022-12-29T04:52:48.723Z,97531.53
2022-12-29T04:55:15.400Z,97546.03
2022-12-29T04:57:42.075Z,97544.63
2022-12-29T05:00:08.736Z,97548.22
2022-12-29T05:02:35.571Z,97546.34
2022-12-29T05:05:02.397Z,97543.91
2022-12-29T05:07:29.173Z,97550.91
2022-12-29T05:09:55.909Z,97547.56
2022-12-29T05:12:22.664Z,97545.75
2022-12-29T05:14:49.317Z,97544.63
2022-12-29T05:17:16.034Z,97554.19
2022-12-29T05:19:42.831Z,97561.69
2022-12-29T05:22:09.537Z,97562.69
2022-12-29T05:24:36.264Z,97556.94
2022-12-29T05:27:02.890Z,97565.03
2022-12-29T05:29:29.531Z,97570.00
2022-12-29T05:31:56.234Z,97568.38
2022-12-29T05:34:22.994Z,97563.09
2022-12-29T05:36:49.700Z,97564.97
2022-12-29T05:39:16.332Z,97555.00
2022-12-29T05:41:42.953Z,97559.81
2022-12-29T05:44:09.612Z,97563.38
2022-12-29T05:46:36.326Z,97561.94
2022-12-29T05:49:03.072Z,97556.84
2022-12-29T05:51:29.752Z,97570.16
2022-12-29T05:53:56.425Z,97572.09
2022-12-29T05:56:23.158Z,97571.03
2022-12-29T05:58:49.869Z,97567.97
2022-12-29T06:01:16.520Z,97555.59
2022-12-29T06:03:48.200Z,97565.44
2022-12-29T06:06:15.299Z,97572.84
2022-12-29T06:08:41.992Z,97576.75
2022-12-29T06:11:08.635Z,97580.22
2022-12-29T06:13:35.298Z,97567.59
2022-12-29T06:16:02.047Z,97584.19
2022-12-29T06:18:28.794Z,97586.00
2022-12-29T06:20:55.478Z,97590.22
2022-12-29T06:23:22.148Z,97589.72
2022-12-29T06:25:48.859Z,97589.38
2022-12-29T06:28:15.567Z,97587.31
2022-12-29T06:30:42.329Z,97582.44
2022-12-29T06:33:08.984Z,97587.66
2022-12-29T06:35:35.617Z,97591.25
2022-12-29T06:38:02.241Z,97588.50
2022-12-29T06:40:28.958Z,97591.28
2022-12-29T06:42:55.759Z,97588.06
2022-12-29T06:45:22.391Z,97584.66
2022-12-29T06:47:49.065Z,97588.41
2022-12-29T06:50:15.737Z,97589.72
2022-12-29T06:52:42.425Z,97590.44
2022-12-29T06:55:09.094Z,97602.56
2022-12-29T06:57:35.725Z,97602.81
2022-12-29T07:00:02.441Z,97607.41
2022-12-29T07:02:29.180Z,97604.06
2022-12-29T07:04:55.991Z,97608.44
2022-12-29T07:07:22.691Z,97608.16
2022-12-29T07:09:49.357Z,97596.41
2022-12-29T07:12:16.019Z,97596.84
2022-12-29T07:14:43.679Z,97595.28
2022-12-29T07:17:10.548Z,97601.22
2022-12-29T07:19:37.311Z,97607.47
2022-12-29T07:22:03.983Z,97602.75
2022-12-29T07:24:30.667Z,97607.94
2022-12-29T07:26:57.296Z,97595.81
2022-12-29T07:29:24.055Z,97600.41
2022-12-29T07:31:50.770Z,97599.75
2022-12-29T07:34:17.597Z,97598.41
2022-12-29T07:36:44.245Z,97606.19
2022-12-29T07:39:11.094Z,97606.75
2022-12-29T07:41:37.752Z,97605.28
2022-12-29T07:44:04.369Z,97604.84
2022-12-29T07:46:56.461Z,97606.25
2022-12-29T07:49:17.732Z,97607.88
2022-12-29T07:51:44.404Z,97609.06
2022-12-29T07:54:11.042Z,97612.25
2022-12-29T07:56:37.665Z,97611.63
2022-12-29T07:59:04.661Z,97616.13
2022-12-29T08:01:31.333Z,97619.94
2022-12-29T08:03:58.155Z,97624.50
2022-12-29T08:06:24.888Z,97621.81
2022-12-29T08:08:51.572Z,97612.66
2022-12-29T08:11:18.278Z,97616.69
2022-12-29T08:13:44.960Z,97602.69
2022-12-29T08:16:11.735Z,97613.69
2022-12-29T08:18:38.471Z,97602.44
2022-12-29T08:21:05.116Z,97604.88
2022-12-29T08:23:31.769Z,97602.16
2022-12-29T08:25:58.454Z,97602.72
2022-12-29T08:28:25.120Z,97614.81
2022-12-29T08:30:51.859Z,97604.06
2022-12-29T08:33:18.545Z,97606.03
2022-12-29T08:35:45.215Z,97606.94
2022-12-29T08:38:11.870Z,97602.97
2022-12-29T08:40:38.567Z,97604.09
2022-12-29T08:43:05.193Z,97610.00
2022-12-29T08:45:31.884Z,97607.78
2022-12-29T08:47:58.548Z,97611.59
2022-12-29T08:50:25.355Z,97609.38
2022-12-29T08:52:52.042Z,97606.44
2022-12-29T08:55:18.738Z,97607.78
2022-12-29T08:57:45.425Z,97606.38
2022-12-29T09:00:12.124Z,97616.13
2022-12-29T09:02:42.106Z,97611.69
2022-12-29T09:05:08.936Z,97619.13
2022-12-29T09:07:35.653Z,97620.16
2022-12-29T09:10:02.367Z,97605.78
2022-12-29T09:12:34.490Z,97607.22
2022-12-29T09:15:03.023Z,97614.25
2022-12-29T09:17:29.737Z,97619.97
2022-12-29T09:19:56.347Z,97622.38
2022-12-29T09:22:23.034Z,97613.16
2022-12-29T09:24:50.211Z,97619.38
2022-12-29T09:27:16.919Z,97615.31
2022-12-29T09:29:43.617Z,97614.75
2022-12-29T09:32:13.877Z,97611.69
2022-12-29T09:34:43.859Z,97606.50
2022-12-29T09:37:10.522Z,97602.91
2022-12-29T09:39:37.244Z,97613.38
2022-12-29T09:42:03.892Z,97606.41
2022-12-29T09:44:30.602Z,97605.47
2022-12-29T09:46:57.442Z,97597.97
2022-12-29T09:49:24.185Z,97606.63
2022-12-29T09:51:50.888Z,97592.91
2022-12-29T09:54:17.560Z,97589.34
2022-12-29T09:56:44.277Z,97585.75
2022-12-29T09:59:10.984Z,97584.69
2022-12-29T10:01:37.722Z,97578.50
2022-12-29T10:04:04.489Z,97577.66
2022-12-29T10:06:31.181Z,97579.72
2022-12-29T10:08:57.858Z,97566.81
2022-12-29T10:11:24.592Z,97572.50
2022-12-29T10:13:53.185Z,97553.94
2022-12-29T10:16:19.923Z,97552.16
2022-12-29T10:18:46.630Z,97549.13
2022-12-29T10:21:13.316Z,97547.09
2022-12-29T10:23:39.934Z,97548.72
2022-12-29T10:26:06.661Z,97544.31
2022-12-29T10:28:33.396Z,97545.09
2022-12-29T10:31:03.593Z,97546.97
2022-12-29T10:33:35.112Z,97538.31
2022-12-29T10:36:01.929Z,97530.84
2022-12-29T10:38:28.649Z,97529.66
2022-12-29T10:40:55.320Z,97528.91
2022-12-29T10:43:22.027Z,97515.91
2022-12-29T10:45:48.717Z,97518.38
2022-12-29T10:48:15.456Z,97521.53
2022-12-29T10:50:42.086Z,97519.78
2022-12-29T10:53:08.748Z,97521.63
2022-12-29T10:55:35.391Z,97527.75
2022-12-29T10:58:02.025Z,97529.19
2022-12-29T11:00:28.940Z,97516.75
2022-12-29T11:02:55.771Z,97523.47
2022-12-29T11:05:22.582Z,97518.22
2022-12-29T11:07:49.295Z,97519.09
2022-12-29T11:10:16.097Z,97508.19
2022-12-29T11:12:42.806Z,97506.75
2022-12-29T11:15:09.471Z,97506.34
2022-12-29T11:17:36.131Z,97514.91
2022-12-29T11:20:02.800Z,97511.22
2022-12-29T11:22:29.475Z,97503.13
2022-12-29T11:24:56.163Z,97502.72
2022-12-29T11:27:22.841Z,97495.22
2022-12-29T11:29:49.477Z,97497.84
2022-12-29T11:32:16.190Z,97492.56
2022-12-29T11:34:42.931Z,97492.31
2022-12-29T11:37:09.756Z,97497.38
2022-12-29T11:39:36.415Z,97501.44
2022-12-29T11:42:03.158Z,97495.78
2022-12-29T11:44:29.837Z,97490.31
2022-12-29T11:46:56.476Z,97493.72
2022-12-29T11:49:23.205Z,97495.66
2022-12-29T11:51:50.924Z,97496.19
2022-12-29T11:54:17.617Z,97485.44
2022-12-29T11:56:44.254Z,97490.34
2022-12-29T11:59:10.910Z,97482.38
2022-12-29T12:01:37.586Z,97480.97
2022-12-29T12:04:04.494Z,97478.59
2022-12-29T12:06:31.243Z,97473.63
2022-12-29T12:08:57.963Z,97481.81
2022-12-29T12:11:24.623Z,97481.50
2022-12-29T12:13:51.349Z,97482.06
2022-12-29T12:16:18.155Z,97470.19
2022-12-29T12:18:44.885Z,97471.16
2022-12-29T12:21:11.549Z,97463.41
2022-12-29T12:23:38.237Z,97454.97
2022-12-29T12:26:04.903Z,97457.31
2022-12-29T12:28:36.454Z,97457.63
2022-12-29T12:31:03.545Z,97446.19
2022-12-29T12:33:30.344Z,97446.81
2022-12-29T12:35:57.064Z,97441.31
2022-12-29T12:38:23.704Z,97443.47
2022-12-29T12:40:51.181Z,97439.94
2022-12-29T12:43:17.872Z,97433.38
2022-12-29T12:45:44.726Z,97436.56
2022-12-29T12:48:11.347Z,97434.19
2022-12-29T12:50:38.062Z,97440.72
2022-12-29T12:53:04.715Z,97438.44
2022-12-29T12:55:31.357Z,97434.03
2022-12-29T12:57:58.019Z,97443.41
2022-12-29T13:00:24.754Z,97439.19
2022-12-29T13:02:51.564Z,97442.00
2022-12-29T13:05:24.309Z,97447.81
2022-12-29T13:07:53.028Z,97443.66
2022-12-29T13:10:19.723Z,97448.22
2022-12-29T13:12:46.493Z,97452.72
2022-12-29T13:15:13.231Z,97448.22
2022-12-29T13:17:39.880Z,97448.75
2022-12-29T13:20:06.593Z,97447.00
2022-12-29T13:22:33.275Z,97445.84
2022-12-29T13:24:59.984Z,97451.22
2022-12-29T13:27:28.741Z,97444.22
2022-12-29T13:29:58.772Z,97449.59
2022-12-29T13:32:25.672Z,97449.59
2022-12-29T13:34:52.317Z,97449.59
2022-12-29T13:37:19.009Z,97446.59
2022-12-29T13:39:45.625Z,97453.16
2022-12-29T13:42:12.316Z,97442.44
2022-12-29T13:44:39.042Z,97452.47
2022-12-29T13:47:05.725Z,97459.91
2022-12-29T13:49:32.438Z,97448.84
2022-12-29T13:51:59.126Z,97446.88
2022-12-29T13:54:25.844Z,97451.13
2022-12-29T13:56:52.558Z,97447.88
2022-12-29T13:59:19.298Z,97462.72
2022-12-29T14:01:46.158Z,97457.13
2022-12-29T14:04:12.971Z,97452.56
2022-12-29T14:06:39.646Z,97452.53
2022-12-29T14:09:06.320Z,97457.75
2022-12-29T14:11:33.005Z,97454.66
2022-12-29T14:13:59.701Z,97448.66
2022-12-29T14:16:26.372Z,97447.88
2022-12-29T14:18:53.125Z,97448.34
2022-12-29T14:21:19.772Z,97449.81
2022-12-29T14:23:46.442Z,97463.56
2022-12-29T14:26:13.077Z,97465.03
2022-12-29T14:28:39.752Z,97453.50
2022-12-29T14:31:06.486Z,97460.03
2022-12-29T14:33:33.229Z,97462.50
2022-12-29T14:35:59.949Z,97452.34
2022-12-29T14:38:26.638Z,97459.25
2022-12-29T14:40:53.314Z,97462.09
2022-12-29T14:43:19.986Z,97457.22
2022-12-29T14:45:46.668Z,97459.56
2022-12-29T14:48:13.358Z,97463.00
2022-12-29T14:50:40.025Z,97458.28
2022-12-29T14:53:06.712Z,97454.56
2022-12-29T14:55:33.344Z,97462.03
2022-12-29T14:58:00.041Z,97467.59
2022-12-29T15:00:26.687Z,97461.41
2022-12-29T15:02:53.485Z,97462.91
2022-12-29T15:05:20.172Z,97470.06
2022-12-29T15:07:46.814Z,97466.13
2022-12-29T15:10:13.480Z,97470.19
2022-12-29T15:12:40.193Z,97473.13
2022-12-29T15:17:51.120Z,97485.16
2022-12-29T15:20:17.859Z,97490.84
2022-12-29T15:22:44.587Z,97485.75
2022-12-29T15:25:11.284Z,97487.78
2022-12-29T15:27:37.964Z,97481.34
2022-12-29T15:30:04.575Z,97483.00
2022-12-29T15:32:31.240Z,97490.63
2022-12-29T15:34:57.927Z,97486.06
2022-12-29T15:37:24.604Z,97483.88
2022-12-29T15:39:51.290Z,97481.56
2022-12-29T15:42:18.015Z,97479.94
2022-12-29T15:44:44.691Z,97478.97
2022-12-29T15:47:11.391Z,97475.63
2022-12-29T15:49:38.127Z,97483.78
2022-12-29T15:52:04.851Z,97485.69
2022-12-29T15:54:31.573Z,97479.88
2022-12-29T15:56:58.297Z,97487.38
2022-12-29T15:59:24.982Z,97485.72
2022-12-29T16:01:51.773Z,97485.41
2022-12-29T16:04:18.539Z,97483.09
2022-12-29T16:06:45.232Z,97484.78
2022-12-29T16:09:11.878Z,97489.78
2022-12-29T16:11:38.533Z,97492.53
2022-12-29T16:14:05.181Z,97491.47
2022-12-29T16:16:31.890Z,97489.50
2022-12-29T16:18:58.824Z,97486.81
2022-12-29T16:21:25.504Z,97500.69
2022-12-29T16:23:52.162Z,97488.63
2022-12-29T16:26:18.867Z,97502.03
2022-12-29T16:28:45.522Z,97498.63
2022-12-29T16:31:12.316Z,97506.09
2022-12-29T16:33:39.095Z,97492.34
2022-12-29T16:36:05.817Z,97494.75
2022-12-29T16:38:32.656Z,97504.31
2022-12-29T16:40:59.342Z,97509.25
2022-12-29T16:43:26.073Z,97504.75
2022-12-29T16:45:52.745Z,97512.69
2022-12-29T16:48:19.482Z,97504.31
2022-12-29T16:50:46.145Z,97505.19
2022-12-29T16:53:12.823Z,97508.19
2022-12-29T16:55:39.496Z,97509.34
2022-12-29T16:58:06.145Z,97500.25
2022-12-29T17:00:32.785Z,97510.22
2022-12-29T17:02:59.584Z,97508.84
2022-12-29T17:05:26.364Z,97506.31
2022-12-29T17:07:53.028Z,97497.69
2022-12-29T17:10:19.736Z,97497.94
2022-12-29T17:12:46.434Z,97499.00
2022-12-29T17:15:13.093Z,97505.47
2022-12-29T17:17:39.820Z,97501.84
2022-12-29T17:20:06.468Z,97499.97
2022-12-29T17:22:33.237Z,97501.78
2022-12-29T17:24:59.930Z,97491.50
2022-12-29T17:27:26.828Z,97494.53
2022-12-29T17:29:53.535Z,97503.44
2022-12-29T17:32:20.179Z,97505.03
2022-12-29T17:34:46.831Z,97504.13
2022-12-29T17:37:13.916Z,97498.59
2022-12-29T17:39:40.671Z,97500.59
2022-12-29T17:42:07.301Z,97501.88
2022-12-29T17:44:34.020Z,97500.59
2022-12-29T17:47:00.724Z,97499.97
2022-12-29T17:49:27.382Z,97495.56
2022-12-29T17:51:54.124Z,97504.22
2022-12-29T17:54:20.781Z,97507.19
2022-12-29T17:56:47.444Z,97504.69
2022-12-29T17:59:14.208Z,97507.09
2022-12-29T18:01:45.303Z,97509.69
2022-12-29T18:04:12.335Z,97508.34
2022-12-29T18:06:39.029Z,97511.78
2022-12-29T18:09:05.681Z,97515.25
2022-12-29T18:11:32.382Z,97508.84
2022-12-29T18:13:59.040Z,97511.22
2022-12-29T18:16:25.780Z,97515.25
2022-12-29T18:18:52.542Z,97503.75
2022-12-29T18:21:19.290Z,97511.94
2022-12-29T18:23:46.171Z,97505.59
2022-12-29T18:26:12.866Z,97507.75
2022-12-29T18:28:39.521Z,97496.72
2022-12-29T18:31:06.259Z,97518.59
2022-12-29T18:33:32.961Z,97500.56
2022-12-29T18:35:59.615Z,97507.34
2022-12-29T18:38:26.335Z,97509.25
2022-12-29T18:40:53.037Z,97510.06
2022-12-29T18:43:19.714Z,97511.69
2022-12-29T18:45:46.394Z,97504.38
2022-12-29T18:48:13.044Z,97500.28
2022-12-29T18:50:39.677Z,97500.03
2022-12-29T18:53:06.386Z,97496.59
2022-12-29T18:55:33.123Z,97500.31
2022-12-29T18:57:59.827Z,97497.09
2022-12-29T19:00:26.482Z,97492.63
2022-12-29T19:02:53.176Z,97501.06
2022-12-29T19:05:19.933Z,97499.91
2022-12-29T19:07:46.632Z,97495.34
2022-12-29T19:10:13.329Z,97489.88
2022-12-29T19:12:40.014Z,97501.78
2022-12-29T19:15:06.699Z,97493.06
2022-12-29T19:17:33.416Z,97487.06
2022-12-29T19:20:00.113Z,97478.22
2022-12-29T19:22:26.873Z,97485.13
2022-12-29T19:24:59.580Z,97491.13
2022-12-29T19:27:26.706Z,97479.19
2022-12-29T19:29:53.353Z,97485.94
2022-12-29T19:32:19.999Z,97480.31
2022-12-29T19:34:46.619Z,97477.94
2022-12-29T19:37:13.308Z,97477.88
2022-12-29T19:39:40.123Z,97469.50
2022-12-29T19:42:06.837Z,97487.47
2022-12-29T19:44:33.507Z,97475.50
2022-12-29T19:47:00.245Z,97483.44
2022-12-29T19:49:27.044Z,97465.56
2022-12-29T19:51:53.731Z,97459.47
2022-12-29T19:54:20.869Z,97461.09
2022-12-29T19:56:47.567Z,97463.09
2022-12-29T19:59:14.397Z,97460.03
2022-12-29T20:01:41.392Z,97457.13
2022-12-29T20:04:08.259Z,97455.28
2022-12-29T20:06:35.111Z,97457.59
2022-12-29T20:09:01.807Z,97472.00
2022-12-29T20:11:28.591Z,97457.81
2022-12-29T20:13:55.320Z,97458.72
2022-12-29T20:16:22.056Z,97468.03
2022-12-29T20:18:51.052Z,97462.09
2022-12-29T20:21:17.823Z,97471.44
2022-12-29T20:23:44.496Z,97473.19
2022-12-29T20:26:11.282Z,97466.63
2022-12-29T20:28:37.948Z,97473.81
2022-12-29T20:31:04.672Z,97468.69
2022-12-29T20:33:31.344Z,97471.22
2022-12-29T20:35:58.034Z,97459.38
2022-12-29T20:38:24.693Z,97469.09
2022-12-29T20:40:51.426Z,97469.63
2022-12-29T20:43:18.068Z,97474.91
2022-12-29T20:45:44.812Z,97458.03
2022-12-29T20:48:11.682Z,97460.19
2022-12-29T20:50:38.449Z,97455.16
2022-12-29T20:53:05.250Z,97452.25
2022-12-29T20:55:31.900Z,97450.78
2022-12-29T20:58:23.074Z,97450.44
2022-12-29T21:00:45.249Z,97445.63
2022-12-29T21:03:12.116Z,97456.88
2022-12-29T21:05:38.945Z,97447.03
2022-12-29T21:08:05.632Z,97437.69
2022-12-29T21:10:32.299Z,97432.88
2022-12-29T21:12:59.003Z,97440.31
2022-12-29T21:15:25.734Z,97427.28
2022-12-29T21:17:52.368Z,97422.94
2022-12-29T21:20:19.001Z,97421.63
2022-12-29T21:22:45.681Z,97426.28
2022-12-29T21:25:12.382Z,97422.84
2022-12-29T21:27:39.127Z,97416.19
2022-12-29T21:30:05.903Z,97413.19
2022-12-29T21:32:32.574Z,97423.19
2022-12-29T21:34:59.222Z,97427.16
2022-12-29T21:37:25.880Z,97423.91
2022-12-29T21:39:52.523Z,97416.59
2022-12-29T21:42:19.206Z,97416.97
2022-12-29T21:44:45.969Z,97416.91
2022-12-29T21:47:14.942Z,97413.25
2022-12-29T21:49:41.586Z,97405.41
2022-12-29T21:52:08.291Z,97407.84
2022-12-29T21:54:35.007Z,97403.31
2022-12-29T21:57:01.718Z,97392.06
2022-12-29T21:59:28.360Z,97382.44
2022-12-29T22:01:55.086Z,97387.66
2022-12-29T22:04:21.820Z,97383.59
2022-12-29T22:06:48.442Z,97383.75
2022-12-29T22:09:15.158Z,97385.41
2022-12-29T22:11:41.857Z,97385.25
2022-12-29T22:14:08.536Z,97377.72
2022-12-29T22:16:35.240Z,97380.16
2022-12-29T22:19:01.922Z,97392.44
2022-12-29T22:21:28.575Z,97391.31
2022-12-29T22:23:55.279Z,97396.00
2022-12-29T22:26:22.044Z,97385.44
2022-12-29T22:28:48.873Z,97388.50
2022-12-29T22:31:15.572Z,97386.84
2022-12-29T22:33:42.259Z,97388.94
2022-12-29T22:36:08.956Z,97390.97
2022-12-29T22:38:35.598Z,97390.72
2022-12-29T22:41:02.309Z,97396.78
2022-12-29T22:43:28.944Z,97396.41
2022-12-29T22:45:55.598Z,97400.66
2022-12-29T22:48:22.333Z,97396.59
2022-12-29T22:50:49.013Z,97403.19
2022-12-29T22:53:15.720Z,97412.72
2022-12-29T22:55:42.428Z,97420.09
2022-12-29T22:58:09.143Z,97416.38
2022-12-29T23:00:35.889Z,97416.88
2022-12-29T23:03:02.737Z,97406.56
2022-12-29T23:05:29.585Z,97413.50
2022-12-29T23:07:56.261Z,97408.09
2022-12-29T23:10:22.975Z,97414.72
2022-12-29T23:12:49.720Z,97416.38
2022-12-29T23:15:16.431Z,97402.16
2022-12-29T23:17:43.108Z,97409.53
2022-12-29T23:20:09.826Z,97404.16
2022-12-29T23:22:36.514Z,97414.41
2022-12-29T23:25:03.160Z,97409.25
2022-12-29T23:27:29.784Z,97409.78
2022-12-29T23:29:56.500Z,97412.91
2022-12-29T23:32:23.181Z,97404.75
2022-12-29T23:34:49.908Z,97394.72
2022-12-29T23:37:16.595Z,97388.19
2022-12-29T23:39:43.298Z,97390.88
2022-12-29T23:42:09.947Z,97402.88
2022-12-29T23:44:36.603Z,97391.81
2022-12-29T23:47:03.382Z,97385.44
2022-12-29T23:49:30.085Z,97384.00
2022-12-29T23:51:56.791Z,97379.38
2022-12-29T23:54:23.650Z,97386.81
2022-12-29T23:56:50.333Z,97382.66
2022-12-29T23:59:17.020Z,97373.72
